Portada
METAR-TAF:

METAR-TAF

Aeroports :

Banská Bystrica, Eslovàquia

latitud: 48-38-17N, longitud: 019-08-03E, altitud: 318 m

METAR: manca

Hora: 02:40 (00:40 UTC)

Pronòstic

L'informe es va fer fa 5 hores i 10 minuts, a les 19:30 UTC
Pronòstic vàlid del 15 a les 21 UTC al 16 a les 06 UTC
Vent 2 kt amb direcció variable
Visibilitat 10 km o més
sense núvols per sota de 1500 mi sense presència de cumulonimbus.

TAF: LZSL 151930Z 1521/1606 VRB02KT CAVOK

Observacions i pronòstics meteorològics de més de 4000 aeroports (METAR i TAF).

Les estacions disponibles són els punts grocs i vermells al mapa.

Posi el ratolí al punt desitjat per veure el nom de l'estació.

Feu clic per veure les observacions i els pronòstics meteorològics.

Per canviar el mapa: feu clic els botons verds amb una creu de color negre per apropar; al botó verd amb un guió per allunyar la imatge; o en les fletxes verdes per a mapes adjacents.


METAR-TAF: